Time;durP1;ratioP1;P1;durP2;ratioP2;P2;SDS_P1;SDS_P2;PMS_P1;PMS_P2;Temp;Humidity;BMP_temperature;BMP_pressure;BME280_temperature;BME280_humidity;BME280_pressure;Samples;Min_cycle;Max_cycle;Signal;HPM_P1;HPM_P2
2021/09/29 00:02:17;;;;;;;23.20;12.40;;;;;;;13.15;85.72;101167.72;1686523;85;20928;-80
2021/09/29 00:04:43;;;;;;;18.00;12.60;;;;;;;13.11;85.71;101167.72;1686385;85;21011;-80
2021/09/29 00:07:09;;;;;;;16.65;11.75;;;;;;;13.05;85.66;101171.05;1686475;85;21079;-79
2021/09/29 00:09:35;;;;;;;21.77;12.33;;;;;;;13.00;85.63;101170.69;1685887;85;21472;-79
2021/09/29 00:12:02;;;;;;;20.45;12.80;;;;;;;12.96;85.60;101164.83;1686589;85;21603;-79
2021/09/29 00:14:28;;;;;;;19.23;13.10;;;;;;;12.92;85.57;101163.98;1686245;85;21536;-80
2021/09/29 00:16:54;;;;;;;23.73;12.03;;;;;;;12.87;85.54;101161.83;1686431;85;21019;-79
2021/09/29 00:19:20;;;;;;;18.37;12.58;;;;;;;12.84;85.53;101168.02;1686786;84;21075;-79
2021/09/29 00:21:46;;;;;;;19.20;11.33;;;;;;;12.80;85.50;101166.17;1688930;84;20975;-79
2021/09/29 00:24:12;;;;;;;19.42;12.90;;;;;;;12.78;85.47;101167.31;1689192;85;22160;-79
2021/09/29 00:26:38;;;;;;;20.43;12.30;;;;;;;12.75;85.45;101164.97;1688854;85;21328;-79
2021/09/29 00:29:04;;;;;;;20.55;12.65;;;;;;;12.72;85.43;101163.97;1689148;85;21046;-80
2021/09/29 00:31:38;;;;;;;20.23;12.85;;;;;;;12.67;85.41;101163.61;1688992;85;21027;-79
2021/09/29 00:34:09;;;;;;;26.82;14.75;;;;;;;12.65;85.37;101162.95;1688375;85;21043;-79
2021/09/29 00:36:38;;;;;;;17.32;11.93;;;;;;;12.61;85.34;101164.28;1689126;85;21231;-80
2021/09/29 00:39:05;;;;;;;28.43;14.40;;;;;;;12.58;85.33;101159.26;1688482;84;21489;-79
2021/09/29 00:41:31;;;;;;;20.50;12.58;;;;;;;12.53;85.29;101150.38;1689442;85;21264;-79
2021/09/29 00:43:57;;;;;;;24.02;12.85;;;;;;;12.49;85.26;101151.70;1689022;84;21022;-79
2021/09/29 00:46:23;;;;;;;17.42;13.18;;;;;;;12.46;85.26;101150.20;1689322;85;21034;-79
2021/09/29 00:48:49;;;;;;;20.00;12.33;;;;;;;12.43;85.23;101146.52;1689205;85;21143;-79
2021/09/29 00:51:15;;;;;;;20.25;12.43;;;;;;;12.41;85.23;101145.86;1689136;85;21098;-79
2021/09/29 00:53:41;;;;;;;23.92;14.05;;;;;;;12.37;85.21;101146.34;1689273;85;21568;-80
2021/09/29 00:56:08;;;;;;;24.07;14.15;;;;;;;12.34;85.18;101141.32;1688917;85;21111;-79
2021/09/29 00:58:34;;;;;;;24.00;13.05;;;;;;;12.30;85.17;101139.47;1686761;85;21018;-79
2021/09/29 01:01:00;;;;;;;22.93;12.00;;;;;;;12.29;85.16;101137.78;1677862;85;21140;-79
2021/09/29 01:03:26;;;;;;;23.60;13.30;;;;;;;12.26;85.15;101138.11;1677814;85;21046;-79
2021/09/29 01:05:52;;;;;;;25.92;13.58;;;;;;;12.23;85.13;101129.09;1677870;85;21018;-79
2021/09/29 01:08:23;;;;;;;20.00;13.43;;;;;;;12.21;85.10;101127.58;1678040;85;21007;-79
2021/09/29 01:11:11;;;;;;;22.02;12.47;;;;;;;12.18;85.10;101128.72;1677938;85;21043;-79
2021/09/29 01:13:44;;;;;;;27.27;14.05;;;;;;;12.16;85.10;101126.72;1677794;85;21144;-80
2021/09/29 01:16:11;;;;;;;26.68;13.60;;;;;;;12.14;85.07;101127.37;1677643;85;21054;-80
2021/09/29 01:18:42;;;;;;;21.93;13.38;;;;;;;12.12;85.08;101125.86;1677644;85;21094;-79
2021/09/29 01:21:11;;;;;;;26.30;14.23;;;;;;;12.09;85.04;101124.86;1677286;84;21534;-80
2021/09/29 01:24:24;;;;;;;19.52;13.68;;;;;;;12.06;85.03;101122.51;1679542;85;21098;-80
2021/09/29 01:26:50;;;;;;;28.60;14.40;;;;;;;12.05;85.00;101119.48;1686077;85;21335;-79
2021/09/29 01:29:19;;;;;;;22.07;13.80;;;;;;;12.02;84.97;101123.33;1686324;85;21010;-80
2021/09/29 01:31:45;;;;;;;20.30;13.62;;;;;;;12.00;84.97;101119.97;1661009;85;21536;-80
2021/09/29 01:34:13;;;;;;;22.10;14.05;;;;;;;11.98;84.96;101116.62;1686088;85;21079;-80
2021/09/29 01:36:39;;;;;;;29.40;14.13;;;;;;;11.96;84.94;101116.77;1686159;84;21031;-79
2021/09/29 01:39:09;;;;;;;23.90;15.08;;;;;;;11.95;84.91;101112.95;1660620;85;21135;-80
2021/09/29 01:41:39;;;;;;;23.05;14.47;;;;;;;11.93;84.92;101121.11;1686682;85;21064;-80
2021/09/29 01:44:04;;;;;;;20.25;13.55;;;;;;;11.92;84.90;101122.63;1686496;85;21078;-80
2021/09/29 01:46:30;;;;;;;24.12;14.03;;;;;;;11.88;84.86;101110.58;1686456;84;21080;-80
2021/09/29 01:49:24;;;;;;;21.37;14.47;;;;;;;11.87;84.85;101122.26;1684859;85;21071;-79
2021/09/29 01:51:51;;;;;;;25.82;13.53;;;;;;;11.84;84.85;101111.89;1686681;84;21113;-80
2021/09/29 01:54:19;;;;;;;21.15;13.65;;;;;;;11.83;84.83;101120.90;1686988;84;21535;-79
2021/09/29 01:56:45;;;;;;;20.10;13.32;;;;;;;11.81;84.80;101126.42;1686405;85;21019;-79
2021/09/29 01:59:11;;;;;;;22.73;14.43;;;;;;;11.80;84.82;101119.89;1686576;85;21071;-80
2021/09/29 02:01:39;;;;;;;23.67;13.53;;;;;;;11.78;84.78;101115.22;1686500;85;21515;-80
2021/09/29 02:04:05;;;;;;;21.48;13.58;;;;;;;11.77;84.77;101119.72;1686414;84;21157;-80
2021/09/29 02:06:51;;;;;;;25.57;13.95;;;;;;;11.76;84.76;101119.86;1686496;85;21007;-79
2021/09/29 02:09:17;;;;;;;18.10;12.98;;;;;;;11.74;84.75;101121.87;1664399;85;21065;-79
2021/09/29 02:11:44;;;;;;;22.20;13.10;;;;;;;11.72;84.74;101123.84;1686628;85;21004;-79
2021/09/29 02:14:10;;;;;;;21.82;13.65;;;;;;;11.68;84.74;101119.28;1686037;85;21074;-79
2021/09/29 02:16:36;;;;;;;19.92;14.20;;;;;;;11.67;84.71;101122.14;1686458;84;21618;-79
2021/09/29 02:19:02;;;;;;;21.82;15.05;;;;;;;11.67;84.70;101124.81;1686361;85;21468;-80
2021/09/29 02:21:28;;;;;;;21.20;13.90;;;;;;;11.64;84.68;101121.97;1686080;84;21058;-79
2021/09/29 02:23:54;;;;;;;22.58;13.60;;;;;;;11.63;84.68;101119.44;1686383;85;21007;-79
2021/09/29 02:26:20;;;;;;;22.95;14.73;;;;;;;11.61;84.65;101118.25;1686472;85;21082;-79
2021/09/29 02:28:47;;;;;;;19.90;14.35;;;;;;;11.60;84.63;101122.43;1686528;85;21111;-80
2021/09/29 02:31:13;;;;;;;22.13;14.43;;;;;;;11.56;84.61;101123.74;1686111;84;21011;-79
2021/09/29 02:33:39;;;;;;;23.87;15.20;;;;;;;11.54;84.61;101127.40;1686580;84;21047;-79
2021/09/29 02:36:05;;;;;;;21.20;16.37;;;;;;;11.52;84.60;101124.55;1686348;84;20955;-79
2021/09/29 02:38:31;;;;;;;25.55;16.27;;;;;;;11.49;84.60;101123.05;1683079;84;21045;-79
2021/09/29 02:40:57;;;;;;;22.07;14.73;;;;;;;11.48;84.60;101122.70;1670203;86;21082;-79
2021/09/29 02:43:23;;;;;;;27.27;16.12;;;;;;;11.46;84.56;101127.38;1670324;86;21039;-79
2021/09/29 02:45:49;;;;;;;24.80;15.50;;;;;;;11.45;84.55;101128.36;1670409;86;20998;-79
2021/09/29 03:18:28;;;;;;;26.05;15.13;;;;;;;11.18;84.34;101115.17;1799360;79;22328;-78
2021/09/29 03:20:54;;;;;;;24.67;15.85;;;;;;;11.11;84.33;101115.45;1725851;83;20863;-78
2021/09/29 03:23:20;;;;;;;20.20;15.32;;;;;;;11.10;84.34;101116.93;1725985;83;21144;-77
2021/09/29 03:25:46;;;;;;;27.22;17.02;;;;;;;11.08;84.31;101119.77;1725998;83;20919;-78
2021/09/29 03:28:11;;;;;;;28.98;16.00;;;;;;;11.05;84.31;101120.05;1725690;82;21068;-78
2021/09/29 03:30:38;;;;;;;28.17;15.98;;;;;;;11.02;84.31;101120.37;1724387;83;21505;-78
2021/09/29 03:33:08;;;;;;;24.25;15.88;;;;;;;10.99;84.31;101118.02;1724194;83;20941;-78
2021/09/29 03:35:32;;;;;;;22.75;15.60;;;;;;;10.95;84.29;101111.30;1723159;83;21273;-77
2021/09/29 03:37:58;;;;;;;25.52;16.50;;;;;;;10.94;84.26;101120.33;1724161;83;21029;-78
2021/09/29 03:40:24;;;;;;;26.82;15.93;;;;;;;10.91;84.25;101116.61;1724016;83;21008;-78
2021/09/29 03:42:50;;;;;;;23.73;16.42;;;;;;;10.90;84.27;101113.62;1724361;83;21021;-77
2021/09/29 03:45:16;;;;;;;24.35;16.30;;;;;;;10.88;84.25;101111.58;1724302;83;21024;-78
2021/09/29 03:47:43;;;;;;;27.75;16.77;;;;;;;10.86;84.24;101113.58;1724293;83;21053;-78
2021/09/29 03:50:10;;;;;;;25.92;16.45;;;;;;;10.84;84.24;101119.55;1724248;83;21041;-78
2021/09/29 03:52:36;;;;;;;24.92;16.37;;;;;;;10.81;84.23;101117.19;1724216;83;21695;-78
2021/09/29 03:55:03;;;;;;;26.05;16.82;;;;;;;10.78;84.23;101111.67;1725348;83;20984;-78
2021/09/29 03:57:29;;;;;;;24.45;17.02;;;;;;;10.77;84.22;101110.48;1693572;84;21155;-77
2021/09/29 03:59:55;;;;;;;21.70;16.45;;;;;;;10.75;84.20;101107.14;1693750;84;21623;-78
2021/09/29 04:02:21;;;;;;;25.72;17.87;;;;;;;10.72;84.20;101107.45;1666518;85;21043;-80
2021/09/29 04:04:47;;;;;;;24.65;17.15;;;;;;;10.71;84.21;101103.94;1693538;84;21050;-79
2021/09/29 04:07:13;;;;;;;29.60;17.67;;;;;;;10.69;84.20;101107.27;1693384;84;21059;-79
2021/09/29 04:09:39;;;;;;;23.90;17.15;;;;;;;10.68;84.19;101106.08;1667005;85;21036;-79
2021/09/29 04:12:06;;;;;;;28.90;17.17;;;;;;;10.66;84.15;101108.08;1667086;85;21168;-79
2021/09/29 04:14:33;;;;;;;24.90;16.45;;;;;;;10.65;84.16;101105.05;1664051;86;22303;-80
2021/09/29 04:16:59;;;;;;;28.20;16.67;;;;;;;10.62;84.15;101101.37;1687496;84;21038;-79
2021/09/29 04:19:25;;;;;;;21.65;15.60;;;;;;;10.61;84.14;101099.68;1677058;84;20991;-79
2021/09/29 04:21:51;;;;;;;25.00;16.05;;;;;;;10.61;84.12;101098.34;1703005;84;21066;-79
2021/09/29 04:24:17;;;;;;;26.10;17.37;;;;;;;10.59;84.09;101088.34;1702783;84;21167;-80
2021/09/29 04:26:43;;;;;;;24.15;15.65;;;;;;;10.56;84.09;101086.80;1703005;84;21331;-79
2021/09/29 04:29:09;;;;;;;33.92;17.70;;;;;;;10.51;84.07;101089.94;1702737;84;21014;-79
2021/09/29 04:31:35;;;;;;;21.62;15.63;;;;;;;10.50;84.07;101094.92;1702557;84;20954;-80
2021/09/29 04:34:01;;;;;;;31.20;16.97;;;;;;;10.48;84.04;101092.88;1702604;84;21041;-80
2021/09/29 04:36:27;;;;;;;25.55;15.55;;;;;;;10.47;84.04;101093.90;1702368;84;21071;-80
2021/09/29 04:38:53;;;;;;;26.80;15.90;;;;;;;10.45;84.04;101090.53;1702358;84;20947;-79
2021/09/29 04:41:19;;;;;;;24.05;15.50;;;;;;;10.44;84.00;101096.03;1702382;84;21010;-79
2021/09/29 04:43:45;;;;;;;26.15;15.23;;;;;;;10.43;84.01;101092.52;1701570;84;21049;-79
2021/09/29 04:46:11;;;;;;;23.55;15.43;;;;;;;10.44;83.98;101095.54;1702198;84;21063;-79
2021/09/29 04:48:37;;;;;;;24.25;15.43;;;;;;;10.47;83.96;101093.06;1702302;84;21877;-79
2021/09/29 04:51:03;;;;;;;22.67;15.35;;;;;;;10.48;83.92;101089.41;1702489;84;20994;-79
2021/09/29 04:53:29;;;;;;;21.93;14.78;;;;;;;10.46;83.89;101092.22;1702447;83;21019;-80
2021/09/29 04:55:59;;;;;;;19.62;13.98;;;;;;;10.45;83.89;101088.35;1702365;84;21034;-80
2021/09/29 04:58:23;;;;;;;26.07;14.45;;;;;;;10.42;83.86;101088.66;1701842;84;21030;-79
2021/09/29 05:00:49;;;;;;;19.77;13.43;;;;;;;10.41;83.84;101095.81;1702641;83;22006;-79
2021/09/29 05:03:17;;;;;;;21.10;14.23;;;;;;;10.41;83.81;101098.48;1702361;84;21055;-79
2021/09/29 05:05:43;;;;;;;24.18;16.67;;;;;;;10.40;83.81;101092.83;1654589;84;21070;-79
2021/09/29 05:08:09;;;;;;;21.37;14.65;;;;;;;10.41;83.78;101097.15;1702038;83;21447;-79
2021/09/29 05:11:23;;;;;;;21.75;14.35;;;;;;;10.43;83.77;101091.68;1702453;84;21554;-79
2021/09/29 05:13:49;;;;;;;29.02;15.03;;;;;;;10.44;83.74;101088.88;1702558;84;21268;-79
2021/09/29 05:16:15;;;;;;;27.75;17.27;;;;;;;10.45;83.69;101087.86;1689161;84;21106;-79
2021/09/29 05:18:41;;;;;;;18.80;14.05;;;;;;;10.49;83.67;101095.91;1683918;84;20931;-79
2021/09/29 05:21:07;;;;;;;21.62;14.25;;;;;;;10.51;83.64;101095.27;1697945;84;21022;-79
2021/09/29 05:23:33;;;;;;;22.95;14.83;;;;;;;10.55;83.61;101105.14;1703410;83;21077;-78
2021/09/29 05:25:59;;;;;;;25.70;14.75;;;;;;;10.57;83.58;101102.30;1685699;84;21030;-79
2021/09/29 05:28:31;;;;;;;25.25;13.32;;;;;;;10.60;83.58;101105.51;1726712;83;21519;-78
2021/09/29 05:30:57;;;;;;;20.88;13.18;;;;;;;10.62;83.53;101105.37;1712925;83;21027;-79
2021/09/29 05:33:23;;;;;;;19.30;13.98;;;;;;;10.64;83.50;101108.70;1725749;83;21109;-78
2021/09/29 05:35:49;;;;;;;22.35;14.25;;;;;;;10.65;83.48;101110.39;1727352;83;21062;-79
2021/09/29 05:38:15;;;;;;;19.30;12.53;;;;;;;10.69;83.44;101118.44;1705622;83;21174;-79
2021/09/29 05:40:41;;;;;;;17.27;12.58;;;;;;;10.73;83.40;101115.81;1702644;81;21558;-78
2021/09/29 05:43:07;;;;;;;19.15;12.58;;;;;;;10.78;83.37;101109.50;1711600;81;21693;-78
2021/09/29 05:45:33;;;;;;;21.85;13.03;;;;;;;10.84;83.31;101108.88;1725892;81;21515;-79
2021/09/29 05:47:59;;;;;;;20.60;12.43;;;;;;;10.87;83.23;101111.27;1722464;81;21002;-79
2021/09/29 05:50:25;;;;;;;20.70;13.13;;;;;;;10.84;83.15;101110.20;1711094;81;21149;-79
2021/09/29 05:52:51;;;;;;;18.25;13.15;;;;;;;10.85;83.10;101117.23;1722851;81;21093;-78
2021/09/29 05:55:17;;;;;;;20.10;13.90;;;;;;;10.80;83.06;101107.53;1713427;81;21038;-78
2021/09/29 05:57:43;;;;;;;18.55;13.35;;;;;;;10.79;83.01;101107.19;1727931;81;21034;-78
2021/09/29 06:00:11;;;;;;;16.70;11.90;;;;;;;10.81;82.99;101109.19;1717250;83;21595;-79
2021/09/29 06:02:38;;;;;;;21.27;12.93;;;;;;;10.82;82.94;101106.88;1713774;82;21169;-79
2021/09/29 06:05:06;;;;;;;22.13;12.85;;;;;;;10.85;82.91;101111.41;1711077;83;21526;-79
2021/09/29 06:07:32;;;;;;;18.10;13.88;;;;;;;10.88;82.86;101110.25;1708255;83;21046;-79
2021/09/29 06:09:58;;;;;;;18.45;11.90;;;;;;;10.90;82.80;101106.45;1714504;83;21072;-79
2021/09/29 06:12:24;;;;;;;18.48;12.65;;;;;;;10.92;82.74;101102.28;1711215;83;21062;-79
2021/09/29 06:14:52;;;;;;;20.65;12.53;;;;;;;10.94;82.69;101101.64;1715202;83;21095;-80
2021/09/29 06:20:05;;;;;;;22.55;12.35;;;;;;;10.96;82.59;101100.98;1692486;84;21025;-79
2021/09/29 06:22:31;;;;;;;16.48;12.58;;;;;;;10.95;82.50;101098.80;1716650;83;21092;-80
2021/09/29 06:24:58;;;;;;;16.85;13.03;;;;;;;10.99;82.45;101096.66;1709642;83;21647;-79
2021/09/29 06:27:24;;;;;;;15.08;12.37;;;;;;;11.01;82.38;101098.70;1715060;83;21895;-79
2021/09/29 06:29:50;;;;;;;22.07;12.85;;;;;;;11.01;82.29;101097.36;1718883;82;21060;-79
2021/09/29 06:32:16;;;;;;;18.45;12.25;;;;;;;11.01;82.24;101097.36;1688675;84;21056;-79
2021/09/29 06:34:42;;;;;;;20.72;13.55;;;;;;;11.03;82.18;101098.03;1696727;84;21102;-79
2021/09/29 06:37:08;;;;;;;19.55;12.37;;;;;;;11.05;82.10;101094.70;1714413;83;21086;-79
2021/09/29 06:39:34;;;;;;;19.85;12.78;;;;;;;11.08;82.02;101087.73;1712365;82;21853;-79
2021/09/29 06:42:00;;;;;;;25.32;12.43;;;;;;;11.11;81.92;101090.59;1717471;83;21049;-79
2021/09/29 06:44:28;;;;;;;16.60;11.95;;;;;;;11.14;81.85;101087.11;1715213;83;21708;-80
2021/09/29 06:46:55;;;;;;;14.15;10.70;;;;;;;11.17;81.75;101093.46;1715739;83;21024;-79
2021/09/29 06:49:21;;;;;;;17.60;11.73;;;;;;;11.22;81.64;101087.17;1716884;83;21020;-80
2021/09/29 06:51:46;;;;;;;15.53;10.80;;;;;;;11.30;81.56;101099.22;1688449;84;21195;-79
2021/09/29 06:54:13;;;;;;;14.98;10.93;;;;;;;11.41;81.49;101093.61;1685301;84;21021;-80
2021/09/29 06:56:39;;;;;;;19.77;10.98;;;;;;;11.53;81.42;101092.84;1685936;84;21058;-80
2021/09/29 06:59:05;;;;;;;20.52;11.43;;;;;;;11.60;81.33;101097.05;1691601;84;21033;-80
2021/09/29 07:01:31;;;;;;;17.70;10.45;;;;;;;11.61;81.19;101100.07;1680133;85;21116;-80
2021/09/29 07:03:57;;;;;;;16.48;10.63;;;;;;;11.66;81.09;101095.07;1680271;85;21157;-80
2021/09/29 07:06:23;;;;;;;16.27;10.53;;;;;;;11.70;80.99;101087.08;1692875;84;21109;-79
2021/09/29 07:08:49;;;;;;;17.07;10.35;;;;;;;11.75;80.93;101086.14;1695754;84;21352;-80
2021/09/29 07:11:16;;;;;;;19.02;11.05;;;;;;;11.76;80.77;101085.13;1683575;84;21085;-80
2021/09/29 07:13:45;;;;;;;15.40;10.65;;;;;;;11.69;80.59;101074.70;1707979;83;21081;-80
2021/09/29 07:16:13;;;;;;;16.10;10.35;;;;;;;11.70;80.49;101065.70;1691458;84;21992;-79
2021/09/29 07:18:39;;;;;;;18.75;11.45;;;;;;;11.68;80.32;101069.05;1704966;82;21109;-80
2021/09/29 07:21:06;;;;;;;16.27;10.40;;;;;;;11.68;80.17;101063.70;1690952;84;21002;-80
2021/09/29 07:23:32;;;;;;;15.70;11.10;;;;;;;11.71;80.08;101056.23;1691970;84;21168;-79
2021/09/29 07:25:58;;;;;;;14.45;10.65;;;;;;;11.73;79.95;101062.24;1679464;84;21041;-79
2021/09/29 07:28:24;;;;;;;14.30;10.40;;;;;;;11.73;79.80;101053.38;1679501;82;21226;-79
2021/09/29 07:30:50;;;;;;;20.35;11.10;;;;;;;11.72;79.68;101056.55;1712397;82;21046;-80
2021/09/29 07:33:16;;;;;;;17.45;11.48;;;;;;;11.72;79.51;101051.20;1710675;83;21090;-71
2021/09/29 07:35:43;;;;;;;16.35;10.20;;;;;;;11.75;79.30;101054.89;1674316;84;21429;-71
2021/09/29 07:38:10;;;;;;;14.03;10.08;;;;;;;11.83;79.17;101051.41;1681951;84;21058;-72
2021/09/29 07:40:36;;;;;;;17.07;10.03;;;;;;;11.95;79.04;101058.15;1699968;84;21150;-80
2021/09/29 07:43:03;;;;;;;16.45;10.15;;;;;;;12.03;78.84;101050.16;1685170;84;21022;-79
2021/09/29 07:45:29;;;;;;;15.15;9.35;;;;;;;12.06;78.66;101063.20;1673060;85;21109;-80
2021/09/29 07:47:55;;;;;;;14.33;9.80;;;;;;;12.10;78.47;101048.50;1681967;84;21703;-81
2021/09/29 07:50:22;;;;;;;14.40;9.33;;;;;;;12.18;78.33;101048.50;1694270;84;21029;-80
2021/09/29 07:52:48;;;;;;;16.15;10.40;;;;;;;12.26;78.18;101043.17;1688050;84;21091;-80
2021/09/29 07:55:15;;;;;;;13.25;9.15;;;;;;;12.42;78.08;101045.86;1689873;84;21058;-80
2021/09/29 07:57:43;;;;;;;17.27;11.53;;;;;;;12.54;77.95;101045.04;1677412;84;21529;-80
2021/09/29 08:00:10;;;;;;;16.45;10.10;;;;;;;12.71;77.83;101041.35;1691382;84;21081;-80
2021/09/29 08:02:36;;;;;;;16.80;9.90;;;;;;;12.86;77.65;101036.16;1676015;84;21026;-80
2021/09/29 08:05:04;;;;;;;15.70;9.78;;;;;;;12.99;77.49;101029.28;1688148;84;21094;-80
2021/09/29 08:07:30;;;;;;;15.38;9.83;;;;;;;13.19;77.35;101032.47;1676743;84;21070;-79
2021/09/29 08:09:56;;;;;;;16.35;9.78;;;;;;;13.32;77.15;101026.06;1680313;84;21101;-80
2021/09/29 08:12:22;;;;;;;15.45;9.08;;;;;;;13.45;76.94;101030.36;1672820;84;21073;-80
2021/09/29 08:14:49;;;;;;;17.62;9.18;;;;;;;13.56;76.76;101026.47;1673686;84;21478;-80
2021/09/29 08:17:15;;;;;;;12.60;8.58;;;;;;;13.70;76.59;101026.23;1673463;84;21543;-80
2021/09/29 08:19:40;;;;;;;18.37;8.33;;;;;;;13.76;76.22;101022.84;1703899;83;21018;-80
2021/09/29 08:22:08;;;;;;;10.70;7.33;;;;;;;13.93;76.05;101024.46;1698383;83;21038;-80
2021/09/29 08:27:20;;;;;;;16.77;8.60;;;;;;;14.15;75.39;101020.95;1718129;83;21076;-80
2021/09/29 08:29:50;;;;;;;10.63;6.40;;;;;;;14.18;75.02;101011.20;1706858;81;21094;-79
2021/09/29 08:32:27;;;;;;;12.28;7.10;;;;;;;14.21;74.62;101008.69;1687092;84;21019;-79
2021/09/29 08:34:56;;;;;;;11.80;7.08;;;;;;;14.11;73.94;101006.75;1688032;84;21471;-79
2021/09/29 08:37:28;;;;;;;13.13;7.20;;;;;;;14.22;73.66;101011.67;1692696;83;21062;-80
2021/09/29 08:40:00;;;;;;;9.93;6.03;;;;;;;14.32;73.35;101004.25;1717808;83;21027;-79
2021/09/29 08:42:37;;;;;;;10.60;6.17;;;;;;;14.46;73.10;101002.97;1707081;83;21090;-80
2021/09/29 08:45:10;;;;;;;9.38;6.58;;;;;;;14.56;72.78;100992.52;1713629;83;22217;-80
2021/09/29 08:50:13;;;;;;;12.98;6.78;;;;;;;14.58;72.14;100989.97;1720907;82;21056;-80
2021/09/29 09:16:45;;;;;;;12.35;8.63;;;;;;;14.80;67.89;100949.31;1715342;83;21044;-80
2021/09/29 09:19:13;;;;;;;9.53;6.47;;;;;;;14.81;67.60;100944.28;1712928;81;21015;-80
2021/09/29 09:21:56;;;;;;;12.03;6.87;;;;;;;14.92;67.50;100950.01;1704065;83;21468;-80
2021/09/29 09:24:25;;;;;;;9.55;6.87;;;;;;;15.08;67.42;100940.11;1696515;83;21060;-80
2021/09/29 09:27:07;;;;;;;10.78;5.87;;;;;;;15.25;67.32;100924.95;1702086;83;21059;-80
2021/09/29 09:29:49;;;;;;;11.75;6.78;;;;;;;15.39;67.14;100933.50;1708994;83;21011;-80
2021/09/29 09:32:17;;;;;;;10.18;6.75;;;;;;;15.23;66.58;100916.76;1710756;83;21091;-80
2021/09/29 09:34:44;;;;;;;11.90;6.30;;;;;;;15.26;66.25;100924.44;1676495;84;21991;-80
2021/09/29 09:37:15;;;;;;;8.30;6.53;;;;;;;15.22;65.87;100923.98;1708085;83;21051;-80
2021/09/29 09:39:42;;;;;;;11.78;6.83;;;;;;;15.27;65.85;100921.55;1680757;84;21070;-80
2021/09/29 09:42:09;;;;;;;12.75;6.42;;;;;;;15.44;65.68;100919.50;1663111;84;21013;-80
2021/09/29 09:44:39;;;;;;;14.10;6.83;;;;;;;15.65;65.59;100924.12;1690721;82;21074;-80
2021/09/29 09:47:15;;;;;;;9.50;6.53;;;;;;;15.75;65.23;100915.23;1681893;84;21255;-80
2021/09/29 09:49:55;;;;;;;12.20;7.65;;;;;;;15.78;65.26;100906.77;1684163;84;21128;-80
2021/09/29 09:52:45;;;;;;;11.88;7.03;;;;;;;15.75;64.56;100903.95;1681353;84;21170;-80
2021/09/29 09:55:16;;;;;;;11.50;6.37;;;;;;;15.76;64.25;100902.91;1683536;84;26595;-81
2021/09/29 09:57:44;;;;;;;12.78;6.58;;;;;;;15.74;63.75;100901.45;1675434;84;21084;-80
2021/09/29 10:00:14;;;;;;;12.50;6.75;;;;;;;15.72;63.31;100895.44;1689043;84;21831;-80
2021/09/29 10:02:44;;;;;;;9.15;5.83;;;;;;;15.74;63.17;100890.19;1689038;84;21042;-79
2021/09/29 10:05:13;;;;;;;12.13;6.80;;;;;;;15.76;63.09;100890.00;1691931;84;21089;-79
2021/09/29 10:07:40;;;;;;;11.45;6.92;;;;;;;15.82;63.08;100894.61;1681808;84;21866;-79
2021/09/29 10:12:58;;;;;;;10.13;6.70;;;;;;;15.83;63.10;100872.08;1686236;84;21171;-81
2021/09/29 10:23:39;;;;;;;13.38;7.37;;;;;;;16.11;62.83;100882.38;1634887;84;21035;-81
2021/09/29 10:28:41;;;;;;;9.18;7.03;;;;;;;16.43;62.47;100895.23;1681939;84;21019;-80
2021/09/29 10:31:37;;;;;;;11.18;7.10;;;;;;;16.41;62.01;100889.23;1667201;86;21587;-80
2021/09/29 10:34:12;;;;;;;12.05;7.25;;;;;;;16.44;61.68;100890.19;1679226;84;21382;-80
2021/09/29 10:36:59;;;;;;;10.90;6.35;;;;;;;16.40;61.17;100884.87;1639428;87;21047;-80
2021/09/29 10:42:18;;;;;;;9.30;6.67;;;;;;;16.34;60.68;100889.70;1639301;87;21024;-80
2021/09/29 10:47:17;;;;;;;10.72;7.00;;;;;;;16.38;60.41;100881.55;1638169;86;21027;-80
2021/09/29 10:50:39;;;;;;;10.00;6.33;;;;;;;16.38;60.20;100877.52;1652043;85;21549;-80
2021/09/29 10:52:28;;;;;;;13.62;5.53;;;;;;;16.48;60.27;100876.65;1627903;86;21162;-80
2021/09/29 11:30:22;;;;;;;11.85;6.80;;;;;;;16.61;58.66;100857.59;1553441;89;21084;-81
2021/09/29 11:32:55;;;;;;;13.55;7.33;;;;;;;16.56;58.46;100857.36;1575116;90;21252;-81
2021/09/29 11:35:32;;;;;;;12.28;7.75;;;;;;;16.67;58.59;100853.61;1574730;90;21107;-81
2021/09/29 11:49:16;;;;;;;17.17;8.40;;;;;;;16.55;58.26;100832.77;1573009;89;21025;-81
2021/09/29 12:10:25;;;;;;;12.33;8.00;;;;;;;16.84;58.80;100832.56;1594851;90;21143;-81
2021/09/29 12:12:53;;;;;;;16.60;6.95;;;;;;;16.80;58.78;100828.59;1631970;87;21156;-81
2021/09/29 12:15:19;;;;;;;10.80;7.75;;;;;;;16.70;58.67;100828.13;1650604;87;21483;-81
2021/09/29 12:17:49;;;;;;;12.47;7.85;;;;;;;16.70;58.62;100826.79;1650591;87;21550;-80
2021/09/29 12:20:16;;;;;;;11.35;8.05;;;;;;;16.69;58.58;100829.16;1648608;85;21022;-81
2021/09/29 12:22:58;;;;;;;14.87;7.35;;;;;;;16.73;58.68;100830.42;1624313;88;21055;-81
2021/09/29 12:31:12;;;;;;;21.95;13.32;;;;;;;16.82;58.67;100839.99;1624125;88;21090;-81
2021/09/29 12:36:15;;;;;;;15.35;8.48;;;;;;;16.87;58.78;100837.55;1624056;88;21042;-81
2021/09/29 12:38:50;;;;;;;13.35;8.38;;;;;;;16.86;58.65;100843.95;1624165;88;21166;-81
2021/09/29 12:41:12;;;;;;;17.98;9.78;;;;;;;16.92;58.72;100847.22;1622676;87;21106;-81
2021/09/29 12:43:38;;;;;;;11.73;8.03;;;;;;;16.96;58.73;100847.11;1623891;88;21057;-80
2021/09/29 12:46:04;;;;;;;20.55;13.40;;;;;;;17.00;58.79;100840.29;1650957;85;21011;-81
2021/09/29 12:48:30;;;;;;;13.03;8.50;;;;;;;17.13;58.83;100837.67;1654324;85;21585;-81
2021/09/29 12:50:59;;;;;;;16.85;8.45;;;;;;;17.18;58.83;100833.84;1672763;85;21829;-81
2021/09/29 12:53:32;;;;;;;39.78;21.60;;;;;;;17.09;58.74;100836.41;1645723;86;21003;-81
2021/09/29 12:56:07;;;;;;;29.57;17.10;;;;;;;16.96;58.54;100833.63;1648600;87;21002;-81
2021/09/29 12:58:32;;;;;;;112.90;58.15;;;;;;;16.98;58.62;100828.89;1650500;87;21038;-81
2021/09/29 13:00:59;;;;;;;69.92;36.20;;;;;;;17.04;58.73;100824.04;1669484;86;21421;-81
2021/09/29 13:03:26;;;;;;;28.23;19.02;;;;;;;17.13;58.77;100822.84;1649308;87;21467;-81
2021/09/29 13:05:52;;;;;;;15.90;10.15;;;;;;;17.22;58.88;100828.36;1632564;87;21517;-80
2021/09/29 13:08:18;;;;;;;16.07;10.03;;;;;;;17.19;58.88;100835.51;1650544;87;21013;-80
2021/09/29 13:10:44;;;;;;;12.93;8.25;;;;;;;17.09;58.86;100840.96;1623193;86;21074;-80
2021/09/29 13:13:11;;;;;;;11.43;8.28;;;;;;;16.97;58.89;100836.66;1663073;86;21045;-80
2021/09/29 13:15:43;;;;;;;13.53;8.73;;;;;;;16.89;58.95;100825.53;1658820;86;21073;-80
2021/09/29 13:18:18;;;;;;;14.50;9.00;;;;;;;16.77;58.92;100827.14;1650929;87;21082;-80
2021/09/29 13:20:42;;;;;;;13.43;9.18;;;;;;;16.68;58.94;100826.14;1656548;85;21074;-79
2021/09/29 13:23:31;;;;;;;15.40;9.08;;;;;;;16.62;59.00;100819.70;1660819;86;21011;-80
2021/09/29 13:36:50;;;;;;;13.68;9.35;;;;;;;16.77;59.57;100819.58;1633314;86;21097;-80
2021/09/29 13:39:18;;;;;;;15.10;9.63;;;;;;;16.69;59.54;100818.38;1631134;86;21534;-80
2021/09/29 13:41:47;;;;;;;15.20;8.13;;;;;;;16.61;59.54;100811.30;1663643;84;21256;-80
2021/09/29 13:44:13;;;;;;;16.48;9.18;;;;;;;16.60;59.63;100811.52;1654531;85;21026;-80
2021/09/29 13:46:39;;;;;;;12.65;8.13;;;;;;;16.60;59.74;100804.78;1650730;87;21034;-80
2021/09/29 13:49:07;;;;;;;16.15;8.10;;;;;;;16.60;59.76;100809.66;1658564;84;21106;-81
2021/09/29 13:51:36;;;;;;;14.23;8.18;;;;;;;16.63;59.85;100813.80;1671083;84;21087;-80
2021/09/29 13:54:21;;;;;;;18.57;7.23;;;;;;;16.68;59.92;100811.33;1641277;86;21769;-80
2021/09/29 14:02:19;;;;;;;12.33;8.43;;;;;;;16.46;59.92;100793.91;1642449;85;21070;-80
2021/09/29 14:29:04;;;;;;;14.23;8.90;;;;;;;16.16;60.55;100809.95;1657760;85;22115;-81
2021/09/29 14:31:34;;;;;;;11.70;7.87;;;;;;;16.16;60.66;100812.64;1674749;85;21079;-81
2021/09/29 14:33:55;;;;;;;15.25;8.53;;;;;;;16.14;60.70;100808.48;1655567;85;21179;-81